createdAt,value
2023-02-11T00:01:09.550Z,18.79
2023-02-11T00:03:36.944Z,18.63
2023-02-11T00:06:06.212Z,19.17
2023-02-11T00:08:33.495Z,18.87
2023-02-11T00:11:00.745Z,19.20
2023-02-11T00:13:28.096Z,19.05
2023-02-11T00:15:55.720Z,18.55
2023-02-11T00:18:23.548Z,19.38
2023-02-11T00:20:50.788Z,19.06
2023-02-11T00:23:18.093Z,18.79
2023-02-11T00:25:45.733Z,19.09
2023-02-11T00:28:13.137Z,19.21
2023-02-11T00:30:41.200Z,18.93
2023-02-11T00:33:09.281Z,19.17
2023-02-11T00:35:37.348Z,19.59
2023-02-11T00:38:04.765Z,19.10
2023-02-11T00:40:32.050Z,19.21
2023-02-11T00:42:59.524Z,19.44
2023-02-11T00:45:26.954Z,19.22
2023-02-11T00:47:55.322Z,19.10
2023-02-11T00:50:22.806Z,18.76
2023-02-11T00:52:50.147Z,18.77
2023-02-11T00:55:17.850Z,19.13
2023-02-11T00:57:45.206Z,19.39
2023-02-11T01:00:13.465Z,19.60
2023-02-11T01:02:40.959Z,19.34
2023-02-11T01:05:08.329Z,19.09
2023-02-11T01:07:35.648Z,19.28
2023-02-11T01:10:02.984Z,18.84
2023-02-11T01:12:30.390Z,18.92
2023-02-11T01:14:58.876Z,19.17
2023-02-11T01:17:26.242Z,19.43
2023-02-11T01:19:53.475Z,19.20
2023-02-11T01:22:21.537Z,19.43
2023-02-11T01:24:48.783Z,19.72
2023-02-11T01:27:19.337Z,19.28
2023-02-11T01:29:46.622Z,19.32
2023-02-11T01:32:13.937Z,19.38
2023-02-11T01:34:41.318Z,19.33
2023-02-11T01:37:08.499Z,19.42
2023-02-11T01:39:36.271Z,19.79
2023-02-11T01:42:03.837Z,19.28
2023-02-11T01:44:31.150Z,19.25
2023-02-11T01:46:58.569Z,19.56
2023-02-11T01:49:30.777Z,19.82
2023-02-11T01:52:04.827Z,19.73
2023-02-11T01:54:53.929Z,19.33
2023-02-11T01:57:27.252Z,19.56
2023-02-11T01:59:57.858Z,19.89
2023-02-11T02:02:34.296Z,19.46
2023-02-11T02:05:08.547Z,20.16
2023-02-11T02:07:46.259Z,19.40
2023-02-11T02:10:17.187Z,20.37
2023-02-11T02:12:44.461Z,19.74
2023-02-11T02:15:17.647Z,19.51
2023-02-11T02:17:53.875Z,19.54
2023-02-11T02:20:39.759Z,19.95
2023-02-11T02:23:10.090Z,19.79
2023-02-11T02:25:56.212Z,19.89
2023-02-11T02:28:29.687Z,19.66
2023-02-11T02:31:09.295Z,19.69
2023-02-11T02:34:10.336Z,19.84
2023-02-11T02:36:43.118Z,19.60
2023-02-11T02:39:10.460Z,19.65
2023-02-11T02:41:39.078Z,19.51
2023-02-11T02:44:07.566Z,19.63
2023-02-11T02:46:38.504Z,19.44
2023-02-11T02:49:07.586Z,19.64
2023-02-11T02:51:37.848Z,19.73
2023-02-11T02:54:05.162Z,19.93
2023-02-11T02:56:46.184Z,19.93
2023-02-11T02:59:24.813Z,19.65
2023-02-11T03:02:04.976Z,19.44
2023-02-11T03:04:32.322Z,19.51
2023-02-11T03:07:14.796Z,19.67
2023-02-11T03:09:49.922Z,19.33
2023-02-11T03:12:17.376Z,19.41
2023-02-11T03:14:46.191Z,19.40
2023-02-11T03:17:14.246Z,19.45
2023-02-11T03:19:43.320Z,19.57
2023-02-11T03:22:19.167Z,19.75
2023-02-11T03:24:46.887Z,19.33
2023-02-11T03:27:20.241Z,19.48
2023-02-11T03:30:14.029Z,19.89
2023-02-11T03:32:47.148Z,19.20
2023-02-11T03:35:17.956Z,19.35
2023-02-11T03:37:52.644Z,19.36
2023-02-11T03:40:22.334Z,19.03
2023-02-11T03:42:51.811Z,19.07
2023-02-11T03:45:22.065Z,19.40
2023-02-11T03:47:52.528Z,19.14
2023-02-11T03:50:20.810Z,19.38
2023-02-11T03:52:50.038Z,19.59
2023-02-11T03:55:18.621Z,19.94
2023-02-11T03:57:46.584Z,19.56
2023-02-11T04:00:14.430Z,19.33
2023-02-11T04:02:41.683Z,19.45
2023-02-11T04:05:10.852Z,19.68
2023-02-11T04:07:38.216Z,19.72
2023-02-11T04:10:05.594Z,19.58
2023-02-11T04:12:32.904Z,19.55
2023-02-11T04:15:00.206Z,19.16
2023-02-11T04:17:27.445Z,19.62
2023-02-11T04:19:54.732Z,19.58
2023-02-11T04:22:22.045Z,19.51
2023-02-11T04:24:49.248Z,19.88
2023-02-11T04:27:16.669Z,19.56
2023-02-11T04:29:43.912Z,19.57
2023-02-11T04:32:11.719Z,19.38
2023-02-11T04:34:39.315Z,19.46
2023-02-11T04:37:06.806Z,19.24
2023-02-11T04:39:34.272Z,19.50
2023-02-11T04:42:01.536Z,19.49
2023-02-11T04:44:28.798Z,19.62
2023-02-11T04:46:57.138Z,19.35
2023-02-11T04:49:24.346Z,19.67
2023-02-11T04:51:51.660Z,19.56
2023-02-11T04:54:18.910Z,19.75
2023-02-11T04:56:46.439Z,19.15
2023-02-11T04:59:14.832Z,19.43
2023-02-11T05:01:42.197Z,19.80
2023-02-11T05:04:09.750Z,19.82
2023-02-11T05:06:38.450Z,20.01
2023-02-11T05:09:05.769Z,19.33
2023-02-11T05:11:33.154Z,19.34
2023-02-11T05:14:00.515Z,19.26
2023-02-11T05:16:28.216Z,19.22
2023-02-11T05:18:55.886Z,19.44
2023-02-11T05:21:23.292Z,19.38
2023-02-11T05:23:50.495Z,19.64
2023-02-11T05:26:17.862Z,19.76
2023-02-11T05:28:45.595Z,19.54
2023-02-11T05:31:14.781Z,19.55
2023-02-11T05:33:42.320Z,19.38
2023-02-11T05:36:10.844Z,19.56
2023-02-11T05:38:38.229Z,19.64
2023-02-11T05:41:06.037Z,19.37
2023-02-11T05:43:35.258Z,18.72
2023-02-11T05:46:03.558Z,19.39
2023-02-11T05:48:31.131Z,19.72
2023-02-11T05:50:58.394Z,19.31
2023-02-11T05:53:25.663Z,19.06
2023-02-11T05:55:55.113Z,19.25
2023-02-11T05:58:23.740Z,19.40
2023-02-11T06:00:51.080Z,19.28
2023-02-11T06:03:18.436Z,19.07
2023-02-11T06:05:46.192Z,19.24
2023-02-11T06:08:13.395Z,19.24
2023-02-11T06:10:59.352Z,19.51
2023-02-11T06:13:26.672Z,19.37
2023-02-11T06:15:57.770Z,19.09
2023-02-11T06:18:25.415Z,19.42
2023-02-11T06:20:52.634Z,19.59
2023-02-11T06:23:19.924Z,19.17
2023-02-11T06:25:47.244Z,19.61
2023-02-11T06:28:14.518Z,19.57
2023-02-11T06:30:41.979Z,19.84
2023-02-11T06:33:09.309Z,19.57
2023-02-11T06:35:38.558Z,19.72
2023-02-11T06:38:05.786Z,19.57
2023-02-11T06:40:33.075Z,19.74
2023-02-11T06:43:00.304Z,19.43
2023-02-11T06:45:27.723Z,19.52
2023-02-11T06:47:54.946Z,19.41
2023-02-11T06:50:22.184Z,19.32
2023-02-11T06:52:49.434Z,19.42
2023-02-11T06:55:16.731Z,19.17
2023-02-11T06:57:43.974Z,19.49
2023-02-11T07:00:11.657Z,19.59
2023-02-11T07:02:39.141Z,19.49
2023-02-11T07:05:07.237Z,19.92
2023-02-11T07:07:34.535Z,20.09
2023-02-11T07:10:04.164Z,20.10
2023-02-11T07:12:34.377Z,19.58
2023-02-11T07:15:01.678Z,19.20
2023-02-11T07:17:28.891Z,19.47
2023-02-11T07:19:56.204Z,19.33
2023-02-11T07:22:23.416Z,19.73
2023-02-11T07:24:50.715Z,19.25
2023-02-11T07:27:17.906Z,19.27
2023-02-11T07:29:47.018Z,19.78
2023-02-11T07:32:14.454Z,19.06
2023-02-11T07:34:42.015Z,19.18
2023-02-11T07:37:09.300Z,19.36
2023-02-11T07:39:36.535Z,19.24
2023-02-11T07:42:04.098Z,18.77
2023-02-11T07:44:33.313Z,18.33
2023-02-11T07:47:00.794Z,18.84
2023-02-11T07:49:28.124Z,18.87
2023-02-11T07:51:55.436Z,19.23
2023-02-11T07:54:22.644Z,19.51
2023-02-11T07:56:49.951Z,18.79
2023-02-11T07:59:17.101Z,18.70
2023-02-11T08:01:44.551Z,18.78
2023-02-11T08:04:11.737Z,19.02
2023-02-11T08:06:41.548Z,18.75
2023-02-11T08:09:09.847Z,18.68
2023-02-11T08:11:37.197Z,19.82
2023-02-11T08:14:04.445Z,19.16
2023-02-11T08:16:33.485Z,19.21
2023-02-11T08:19:06.821Z,18.82
2023-02-11T08:21:34.322Z,19.40
2023-02-11T08:24:03.268Z,19.39
2023-02-11T08:26:31.881Z,18.81
2023-02-11T08:28:59.319Z,19.05
2023-02-11T08:31:40.959Z,19.41
2023-02-11T08:34:10.591Z,19.51
2023-02-11T08:36:38.501Z,19.11
2023-02-11T08:39:22.492Z,18.72
2023-02-11T08:41:51.940Z,19.39
2023-02-11T08:44:19.781Z,19.26
2023-02-11T08:46:48.183Z,18.68
2023-02-11T08:49:15.866Z,19.18
2023-02-11T08:51:43.516Z,19.19
2023-02-11T08:54:10.795Z,19.26
2023-02-11T08:56:38.490Z,19.72
2023-02-11T08:59:06.671Z,19.14
2023-02-11T09:01:34.653Z,19.07
2023-02-11T09:04:02.466Z,19.06
2023-02-11T09:06:31.012Z,18.67
2023-02-11T09:08:59.006Z,18.55
2023-02-11T09:11:28.651Z,19.17
2023-02-11T09:13:56.221Z,19.04
2023-02-11T09:16:24.803Z,18.50
2023-02-11T09:18:52.699Z,18.67
2023-02-11T09:21:20.206Z,18.90
2023-02-11T09:23:48.178Z,18.85
2023-02-11T09:26:17.528Z,18.73
2023-02-11T09:28:44.894Z,19.54
2023-02-11T09:31:13.623Z,19.14
2023-02-11T09:33:47.702Z,19.77
2023-02-11T09:36:22.262Z,19.68
2023-02-11T09:38:49.506Z,19.17
2023-02-11T09:41:19.423Z,19.76
2023-02-11T09:43:47.787Z,19.69
2023-02-11T09:46:16.291Z,19.08
2023-02-11T09:48:45.801Z,19.05
2023-02-11T09:51:36.560Z,19.02
2023-02-11T09:54:33.184Z,19.29
2023-02-11T09:57:00.484Z,19.14
2023-02-11T09:59:28.205Z,19.60
2023-02-11T10:01:55.407Z,19.61
2023-02-11T10:04:32.933Z,19.72
2023-02-11T10:07:07.630Z,19.83
2023-02-11T10:09:51.694Z,19.66
2023-02-11T10:12:25.051Z,19.64
2023-02-11T10:15:00.404Z,19.53
2023-02-11T10:17:39.831Z,19.94
2023-02-11T10:20:07.190Z,19.84
2023-02-11T10:22:45.906Z,19.72
2023-02-11T10:25:19.970Z,20.34
2023-02-11T10:27:56.139Z,19.72
2023-02-11T10:30:27.015Z,20.01
2023-02-11T10:32:57.747Z,19.81
2023-02-11T10:35:25.109Z,20.55
2023-02-11T10:37:52.313Z,20.53
2023-02-11T10:40:21.934Z,20.32
2023-02-11T10:42:51.576Z,19.91
2023-02-11T10:45:33.013Z,19.42
2023-02-11T10:48:01.291Z,19.16
2023-02-11T10:50:29.879Z,19.68
2023-02-11T10:53:30.077Z,18.75
2023-02-11T10:55:58.680Z,18.91
2023-02-11T10:58:28.271Z,18.50
2023-02-11T11:00:57.005Z,18.96
2023-02-11T11:03:25.748Z,19.10
2023-02-11T11:06:17.892Z,18.84
2023-02-11T11:08:49.220Z,19.08
2023-02-11T11:11:17.908Z,19.00
2023-02-11T11:13:54.335Z,18.52
2023-02-11T11:16:24.209Z,18.47
2023-02-11T11:18:53.437Z,18.76
2023-02-11T11:21:22.455Z,18.92
2023-02-11T11:23:55.151Z,18.43
2023-02-11T11:26:23.122Z,18.59
2023-02-11T11:28:55.642Z,18.43
2023-02-11T11:31:34.897Z,18.69
2023-02-11T11:34:22.715Z,19.74
2023-02-11T11:36:50.866Z,20.02
2023-02-11T11:39:23.885Z,20.00
2023-02-11T11:41:52.599Z,19.79
2023-02-11T11:44:36.714Z,20.00
2023-02-11T11:47:16.064Z,19.52
2023-02-11T11:49:43.306Z,20.17
2023-02-11T11:52:10.507Z,19.97
2023-02-11T11:54:38.581Z,19.86
2023-02-11T11:57:12.727Z,20.06
2023-02-11T11:59:40.018Z,19.80
2023-02-11T12:02:25.449Z,20.24
2023-02-11T12:05:02.795Z,20.43
2023-02-11T12:07:33.298Z,20.37
2023-02-11T12:10:16.239Z,20.33
2023-02-11T12:12:53.556Z,19.84
2023-02-11T12:15:44.195Z,20.31
2023-02-11T12:18:32.987Z,19.55
2023-02-11T12:21:12.466Z,19.61
2023-02-11T12:23:40.097Z,19.38
2023-02-11T12:26:14.088Z,18.83
2023-02-11T12:29:00.808Z,19.70
2023-02-11T12:31:47.302Z,19.20
2023-02-11T12:34:33.141Z,18.57
2023-02-11T12:37:03.328Z,18.71
2023-02-11T12:39:53.810Z,19.24
2023-02-11T12:42:45.607Z,18.94
2023-02-11T12:45:12.860Z,18.93
2023-02-11T12:47:46.340Z,18.74
2023-02-11T12:50:16.458Z,18.84
2023-02-11T12:52:43.665Z,19.07
2023-02-11T12:55:17.136Z,19.45
2023-02-11T12:57:45.049Z,19.18
2023-02-11T13:00:15.501Z,19.60
2023-02-11T13:03:06.148Z,19.26
2023-02-11T13:05:43.170Z,18.93
2023-02-11T13:08:14.380Z,18.83
2023-02-11T13:10:43.319Z,19.50
2023-02-11T13:13:22.589Z,19.84
2023-02-11T13:15:53.048Z,19.90
2023-02-11T13:18:40.176Z,19.65
2023-02-11T13:21:19.958Z,19.87
2023-02-11T13:24:07.527Z,19.95
2023-02-11T13:26:37.844Z,19.82
2023-02-11T13:29:23.344Z,19.35
2023-02-11T13:32:05.145Z,19.16
2023-02-11T13:34:41.346Z,19.16
2023-02-11T13:37:22.024Z,19.19
2023-02-11T13:39:58.633Z,19.34
2023-02-11T13:42:25.981Z,19.95
2023-02-11T13:44:53.733Z,19.84
2023-02-11T13:47:27.436Z,20.17
2023-02-11T13:49:55.099Z,20.36
2023-02-11T13:52:31.681Z,19.33
2023-02-11T13:55:06.188Z,19.73
2023-02-11T13:57:34.659Z,19.55
2023-02-11T14:00:06.139Z,20.01
2023-02-11T14:02:56.983Z,20.09
2023-02-11T14:05:44.118Z,19.98
2023-02-11T14:08:30.461Z,20.01
2023-02-11T14:10:59.541Z,19.67
2023-02-11T14:13:26.800Z,19.88
2023-02-11T14:16:07.658Z,19.77
2023-02-11T14:18:39.323Z,19.60
2023-02-11T14:21:18.886Z,19.47
2023-02-11T14:23:47.019Z,19.39
2023-02-11T14:26:21.629Z,19.94
2023-02-11T14:29:01.642Z,20.19
2023-02-11T14:31:38.910Z,19.80
2023-02-11T14:34:24.917Z,19.71
2023-02-11T14:37:05.378Z,19.72
2023-02-11T14:39:52.820Z,19.49
2023-02-11T14:42:22.503Z,19.22
2023-02-11T14:44:51.002Z,19.99
2023-02-11T14:47:23.717Z,19.66
2023-02-11T14:49:51.107Z,20.28
2023-02-11T14:52:44.474Z,19.28
2023-02-11T14:55:24.107Z,19.49
2023-02-11T14:58:05.242Z,19.35
2023-02-11T15:00:32.974Z,18.59
2023-02-11T15:03:00.286Z,19.68
2023-02-11T15:05:29.124Z,19.25
2023-02-11T15:07:59.299Z,19.74
2023-02-11T15:10:30.062Z,19.53
2023-02-11T15:12:58.011Z,19.09
2023-02-11T15:15:26.030Z,19.38
2023-02-11T15:17:53.747Z,18.71
2023-02-11T15:20:32.005Z,18.79
2023-02-11T15:23:01.304Z,18.99
2023-02-11T15:25:28.933Z,19.03
2023-02-11T15:27:57.327Z,19.26
2023-02-11T15:30:34.182Z,19.52
2023-02-11T15:33:03.322Z,18.65
2023-02-11T15:35:32.559Z,18.80
2023-02-11T15:38:00.039Z,18.59
2023-02-11T15:40:29.682Z,19.05
2023-02-11T15:42:58.993Z,18.63
2023-02-11T15:45:29.678Z,19.83
2023-02-11T15:48:06.862Z,19.18
2023-02-11T15:50:37.166Z,18.48
2023-02-11T15:53:13.800Z,19.43
2023-02-11T15:55:41.449Z,19.33
2023-02-11T15:58:10.242Z,19.09
2023-02-11T16:00:48.524Z,18.80
2023-02-11T16:03:27.856Z,18.98
2023-02-11T16:06:00.009Z,19.35
2023-02-11T16:08:29.838Z,19.62
2023-02-11T16:11:03.477Z,18.97
2023-02-11T16:13:34.647Z,18.79
2023-02-11T16:16:17.212Z,18.77
2023-02-11T16:19:02.084Z,18.98
2023-02-11T16:21:41.272Z,18.89
2023-02-11T16:24:15.991Z,19.37
2023-02-11T16:26:47.686Z,19.63
2023-02-11T16:29:22.112Z,18.33
2023-02-11T16:31:50.487Z,19.06
2023-02-11T16:34:19.454Z,18.64
2023-02-11T16:36:47.467Z,18.72
2023-02-11T16:39:17.925Z,19.43
2023-02-11T16:41:46.527Z,18.94
2023-02-11T16:44:13.730Z,19.35
2023-02-11T16:46:41.024Z,19.17
2023-02-11T16:49:16.026Z,19.32
2023-02-11T16:51:49.173Z,19.51
2023-02-11T16:54:17.049Z,19.50
2023-02-11T16:56:44.639Z,18.87
2023-02-11T16:59:12.218Z,18.93
2023-02-11T17:01:40.408Z,18.30
2023-02-11T17:04:10.789Z,19.58
2023-02-11T17:06:38.120Z,19.25
2023-02-11T17:09:06.813Z,19.69
2023-02-11T17:11:34.271Z,19.16
2023-02-11T17:14:01.504Z,19.24
2023-02-11T17:16:29.969Z,18.65
2023-02-11T17:18:57.223Z,17.84
2023-02-11T17:21:27.646Z,18.26
2023-02-11T17:23:57.141Z,18.65
2023-02-11T17:26:24.624Z,18.30
2023-02-11T17:28:51.935Z,17.47
2023-02-11T17:31:19.472Z,18.82
2023-02-11T17:33:48.375Z,18.31
2023-02-11T17:36:15.621Z,18.89
2023-02-11T17:38:42.875Z,19.12
2023-02-11T17:41:10.177Z,18.54
2023-02-11T17:43:37.359Z,18.53
2023-02-11T17:46:08.421Z,18.80
2023-02-11T17:48:38.826Z,17.88
2023-02-11T17:51:19.328Z,18.40
2023-02-11T17:53:46.921Z,18.30
2023-02-11T17:56:14.128Z,18.87
2023-02-11T17:58:41.801Z,18.63
2023-02-11T18:01:10.792Z,18.33
2023-02-11T18:03:38.703Z,18.44
2023-02-11T18:06:06.773Z,18.14
2023-02-11T18:08:34.470Z,17.72
2023-02-11T18:11:01.861Z,17.89
2023-02-11T18:13:29.309Z,18.23
2023-02-11T18:16:01.856Z,17.93
2023-02-11T18:18:29.881Z,17.25
2023-02-11T18:21:01.004Z,17.64
2023-02-11T18:23:28.276Z,17.17
2023-02-11T18:25:55.473Z,17.71
2023-02-11T18:28:22.952Z,17.50
2023-02-11T18:30:56.388Z,17.29
2023-02-11T18:33:24.094Z,17.56
2023-02-11T18:35:52.598Z,17.09
2023-02-11T18:38:22.962Z,17.51
2023-02-11T18:40:50.626Z,17.69
2023-02-11T18:43:19.171Z,17.59
2023-02-11T18:46:11.317Z,17.43
2023-02-11T18:48:39.151Z,16.91
2023-02-11T18:51:10.438Z,18.11
2023-02-11T18:53:38.025Z,17.53
2023-02-11T18:56:09.724Z,17.32
2023-02-11T18:58:40.160Z,17.41
2023-02-11T19:01:36.618Z,17.32
2023-02-11T19:04:04.711Z,17.55
2023-02-11T19:06:34.598Z,17.43
2023-02-11T19:09:14.848Z,17.82
2023-02-11T19:11:49.189Z,17.80
2023-02-11T19:14:18.259Z,16.83
2023-02-11T19:16:46.422Z,17.70
2023-02-11T19:19:14.265Z,17.49
2023-02-11T19:21:43.406Z,17.50
2023-02-11T19:24:11.558Z,17.73
2023-02-11T19:26:38.886Z,17.25
2023-02-11T19:29:06.331Z,17.29
2023-02-11T19:31:35.047Z,17.50
2023-02-11T19:34:02.964Z,17.62
2023-02-11T19:36:30.650Z,17.53
2023-02-11T19:39:01.834Z,17.55
2023-02-11T19:41:29.538Z,17.31
2023-02-11T19:43:57.055Z,17.49
2023-02-11T19:46:25.548Z,17.52
2023-02-11T19:48:53.198Z,17.48
2023-02-11T19:51:20.916Z,17.45
2023-02-11T19:53:48.725Z,17.72
2023-02-11T19:56:17.719Z,17.64
2023-02-11T19:58:46.419Z,17.45
2023-02-11T20:01:19.676Z,17.46
2023-02-11T20:03:53.109Z,17.64
2023-02-11T20:06:31.555Z,17.46
2023-02-11T20:09:01.202Z,17.45
2023-02-11T20:11:30.176Z,17.37
2023-02-11T20:14:00.118Z,17.66
2023-02-11T20:16:46.191Z,17.41
2023-02-11T20:19:18.391Z,17.25
2023-02-11T20:21:47.484Z,17.08
2023-02-11T20:24:16.369Z,17.00
2023-02-11T20:26:46.930Z,16.97
2023-02-11T20:29:15.395Z,17.12
2023-02-11T20:31:43.316Z,17.10
2023-02-11T20:34:12.068Z,17.09
2023-02-11T20:36:40.728Z,17.18
2023-02-11T20:39:08.769Z,16.75
2023-02-11T20:41:38.793Z,16.85
2023-02-11T20:44:06.884Z,16.97
2023-02-11T20:46:34.492Z,16.52
2023-02-11T20:49:02.239Z,16.58
2023-02-11T20:51:31.696Z,16.65
2023-02-11T20:53:59.617Z,16.64
2023-02-11T20:56:28.970Z,16.81
2023-02-11T20:59:00.292Z,16.97
2023-02-11T21:01:40.804Z,16.77
2023-02-11T21:04:11.233Z,16.45
2023-02-11T21:06:43.271Z,15.94
2023-02-11T21:09:12.380Z,15.98
2023-02-11T21:11:40.124Z,16.08
2023-02-11T21:14:07.933Z,16.42
2023-02-11T21:16:35.384Z,16.87
2023-02-11T21:19:03.100Z,16.83
2023-02-11T21:21:30.794Z,16.46
2023-02-11T21:23:58.733Z,16.77
2023-02-11T21:26:26.091Z,16.82
2023-02-11T21:28:55.182Z,16.61
2023-02-11T21:31:26.171Z,16.70
2023-02-11T21:33:56.954Z,16.83
2023-02-11T21:36:25.749Z,16.73
2023-02-11T21:38:53.043Z,16.92
2023-02-11T21:41:25.066Z,16.87
2023-02-11T21:43:52.575Z,16.85
2023-02-11T21:46:20.472Z,16.67
2023-02-11T21:48:48.652Z,16.77
2023-02-11T21:51:17.252Z,16.70
2023-02-11T21:53:44.676Z,16.93
2023-02-11T21:56:14.619Z,16.77
2023-02-11T21:58:42.396Z,16.86
2023-02-11T22:01:20.040Z,16.72
2023-02-11T22:03:47.426Z,16.91
2023-02-11T22:06:15.918Z,16.79
2023-02-11T22:08:43.593Z,17.05
2023-02-11T22:11:12.327Z,16.84
2023-02-11T22:13:40.968Z,16.61
2023-02-11T22:16:09.994Z,16.46
2023-02-11T22:18:37.812Z,16.76
2023-02-11T22:21:08.285Z,16.75
2023-02-11T22:23:36.279Z,16.88
2023-02-11T22:26:13.746Z,16.87
2023-02-11T22:28:43.355Z,17.04
2023-02-11T22:31:15.698Z,16.89
2023-02-11T22:33:44.442Z,16.76
2023-02-11T22:36:24.252Z,16.53
2023-02-11T22:38:52.128Z,16.97
2023-02-11T22:41:19.728Z,16.65
2023-02-11T22:43:47.054Z,16.92
2023-02-11T22:46:15.860Z,16.87
2023-02-11T22:48:43.482Z,16.83
2023-02-11T22:51:15.093Z,16.71
2023-02-11T22:53:43.854Z,16.85
2023-02-11T22:56:15.162Z,16.64
2023-02-11T22:58:43.624Z,16.77
2023-02-11T23:01:11.514Z,16.98
2023-02-11T23:03:39.012Z,16.74
2023-02-11T23:06:07.253Z,16.74
2023-02-11T23:08:35.323Z,17.07
2023-02-11T23:11:07.151Z,16.98
2023-02-11T23:13:35.622Z,17.03
2023-02-11T23:16:04.129Z,17.15
2023-02-11T23:18:31.701Z,17.00
2023-02-11T23:21:03.138Z,16.73
2023-02-11T23:23:30.540Z,16.85
2023-02-11T23:25:57.822Z,17.16
2023-02-11T23:28:25.244Z,16.99
2023-02-11T23:30:52.553Z,16.86
2023-02-11T23:33:20.015Z,17.34
2023-02-11T23:35:47.389Z,17.19
2023-02-11T23:38:14.624Z,17.06
2023-02-11T23:40:42.190Z,17.08
2023-02-11T23:43:09.621Z,17.19
2023-02-11T23:45:40.173Z,17.15
2023-02-11T23:48:07.634Z,17.08
2023-02-11T23:50:37.173Z,17.01
2023-02-11T23:53:04.545Z,16.79
2023-02-11T23:55:31.757Z,17.16
2023-02-11T23:58:01.086Z,16.95
